sensor_id;sensor_type;location;lat;lon;timestamp;P1;durP1;ratioP1;P2;durP2;ratioP2
10894;SDS011;5500;49.886;8.074;2023-02-22T00:00:44;23.30;;;14.37;;
10894;SDS011;5500;49.886;8.074;2023-02-22T00:03:15;20.97;;;14.60;;
10894;SDS011;5500;49.886;8.074;2023-02-22T00:05:51;20.23;;;14.80;;
10894;SDS011;5500;49.886;8.074;2023-02-22T00:08:23;22.77;;;14.47;;
10894;SDS011;5500;49.886;8.074;2023-02-22T00:10:56;20.57;;;13.50;;
10894;SDS011;5500;49.886;8.074;2023-02-22T00:13:36;18.40;;;13.37;;
10894;SDS011;5500;49.886;8.074;2023-02-22T00:16:08;24.03;;;16.80;;
10894;SDS011;5500;49.886;8.074;2023-02-22T00:18:38;25.10;;;17.90;;
10894;SDS011;5500;49.886;8.074;2023-02-22T00:21:06;23.70;;;17.37;;
10894;SDS011;5500;49.886;8.074;2023-02-22T00:23:38;26.53;;;17.57;;
10894;SDS011;5500;49.886;8.074;2023-02-22T00:26:12;21.97;;;16.27;;
10894;SDS011;5500;49.886;8.074;2023-02-22T00:28:44;24.50;;;18.13;;
10894;SDS011;5500;49.886;8.074;2023-02-22T00:31:13;27.97;;;17.60;;
10894;SDS011;5500;49.886;8.074;2023-02-22T00:33:42;21.07;;;16.37;;
10894;SDS011;5500;49.886;8.074;2023-02-22T00:36:10;24.40;;;16.17;;
10894;SDS011;5500;49.886;8.074;2023-02-22T00:38:40;24.27;;;17.57;;
10894;SDS011;5500;49.886;8.074;2023-02-22T00:41:10;22.67;;;17.23;;
10894;SDS011;5500;49.886;8.074;2023-02-22T00:43:40;28.40;;;18.43;;
10894;SDS011;5500;49.886;8.074;2023-02-22T00:46:08;27.87;;;19.33;;
10894;SDS011;5500;49.886;8.074;2023-02-22T00:48:38;24.13;;;19.17;;
10894;SDS011;5500;49.886;8.074;2023-02-22T00:51:06;23.57;;;17.40;;
10894;SDS011;5500;49.886;8.074;2023-02-22T00:53:34;27.43;;;20.07;;
10894;SDS011;5500;49.886;8.074;2023-02-22T00:56:05;29.30;;;19.73;;
10894;SDS011;5500;49.886;8.074;2023-02-22T00:58:38;25.23;;;18.90;;
10894;SDS011;5500;49.886;8.074;2023-02-22T01:01:08;24.87;;;18.57;;
10894;SDS011;5500;49.886;8.074;2023-02-22T01:03:36;22.53;;;17.77;;
10894;SDS011;5500;49.886;8.074;2023-02-22T01:06:06;23.90;;;17.63;;
10894;SDS011;5500;49.886;8.074;2023-02-22T01:08:34;22.43;;;17.93;;
10894;SDS011;5500;49.886;8.074;2023-02-22T01:11:04;29.40;;;20.07;;
10894;SDS011;5500;49.886;8.074;2023-02-22T01:13:32;27.23;;;19.50;;
10894;SDS011;5500;49.886;8.074;2023-02-22T01:16:00;26.43;;;20.80;;
10894;SDS011;5500;49.886;8.074;2023-02-22T01:18:29;26.47;;;19.97;;
10894;SDS011;5500;49.886;8.074;2023-02-22T01:20:58;25.03;;;20.27;;
10894;SDS011;5500;49.886;8.074;2023-02-22T01:23:27;28.47;;;20.13;;
10894;SDS011;5500;49.886;8.074;2023-02-22T01:25:55;25.20;;;20.50;;
10894;SDS011;5500;49.886;8.074;2023-02-22T01:28:25;30.60;;;20.90;;
10894;SDS011;5500;49.886;8.074;2023-02-22T01:30:56;34.20;;;21.73;;
10894;SDS011;5500;49.886;8.074;2023-02-22T01:33:25;26.87;;;19.43;;
10894;SDS011;5500;49.886;8.074;2023-02-22T01:35:53;24.47;;;17.93;;
10894;SDS011;5500;49.886;8.074;2023-02-22T01:38:21;26.43;;;17.53;;
10894;SDS011;5500;49.886;8.074;2023-02-22T01:40:50;22.60;;;17.50;;
10894;SDS011;5500;49.886;8.074;2023-02-22T01:43:19;25.43;;;18.47;;
10894;SDS011;5500;49.886;8.074;2023-02-22T01:45:55;22.03;;;16.63;;
10894;SDS011;5500;49.886;8.074;2023-02-22T01:48:27;28.87;;;17.43;;
10894;SDS011;5500;49.886;8.074;2023-02-22T01:50:59;21.23;;;17.00;;
10894;SDS011;5500;49.886;8.074;2023-02-22T01:53:29;25.33;;;17.53;;
10894;SDS011;5500;49.886;8.074;2023-02-22T01:55:59;23.83;;;16.83;;
10894;SDS011;5500;49.886;8.074;2023-02-22T01:58:28;22.77;;;17.57;;
10894;SDS011;5500;49.886;8.074;2023-02-22T02:00:59;21.63;;;16.03;;
10894;SDS011;5500;49.886;8.074;2023-02-22T02:03:28;21.37;;;17.03;;
10894;SDS011;5500;49.886;8.074;2023-02-22T02:05:59;23.97;;;16.83;;
10894;SDS011;5500;49.886;8.074;2023-02-22T02:08:32;24.27;;;17.67;;
10894;SDS011;5500;49.886;8.074;2023-02-22T02:11:03;25.67;;;18.30;;
10894;SDS011;5500;49.886;8.074;2023-02-22T02:13:34;26.60;;;18.57;;
10894;SDS011;5500;49.886;8.074;2023-02-22T02:16:04;23.23;;;15.50;;
10894;SDS011;5500;49.886;8.074;2023-02-22T02:18:32;17.43;;;13.07;;
10894;SDS011;5500;49.886;8.074;2023-02-22T02:21:08;16.90;;;11.77;;
10894;SDS011;5500;49.886;8.074;2023-02-22T02:24:12;17.93;;;11.87;;
10894;SDS011;5500;49.886;8.074;2023-02-22T02:27:10;20.57;;;11.53;;
10894;SDS011;5500;49.886;8.074;2023-02-22T02:29:56;19.70;;;12.27;;
10894;SDS011;5500;49.886;8.074;2023-02-22T02:32:49;16.80;;;12.60;;
10894;SDS011;5500;49.886;8.074;2023-02-22T02:35:20;19.63;;;13.47;;
10894;SDS011;5500;49.886;8.074;2023-02-22T02:37:56;17.27;;;13.33;;
10894;SDS011;5500;49.886;8.074;2023-02-22T02:40:30;19.57;;;13.73;;
10894;SDS011;5500;49.886;8.074;2023-02-22T02:43:03;18.77;;;13.43;;
10894;SDS011;5500;49.886;8.074;2023-02-22T02:45:34;21.77;;;13.97;;
10894;SDS011;5500;49.886;8.074;2023-02-22T02:48:07;20.07;;;14.43;;
10894;SDS011;5500;49.886;8.074;2023-02-22T02:50:36;21.43;;;14.63;;
10894;SDS011;5500;49.886;8.074;2023-02-22T02:53:07;21.00;;;13.23;;
10894;SDS011;5500;49.886;8.074;2023-02-22T02:55:36;19.70;;;14.50;;
10894;SDS011;5500;49.886;8.074;2023-02-22T02:58:04;18.87;;;14.63;;
10894;SDS011;5500;49.886;8.074;2023-02-22T03:00:34;24.50;;;14.37;;
10894;SDS011;5500;49.886;8.074;2023-02-22T03:03:08;24.47;;;15.07;;
10894;SDS011;5500;49.886;8.074;2023-02-22T03:05:53;20.67;;;14.73;;
10894;SDS011;5500;49.886;8.074;2023-02-22T03:08:29;24.90;;;14.97;;
10894;SDS011;5500;49.886;8.074;2023-02-22T03:11:04;22.30;;;14.73;;
10894;SDS011;5500;49.886;8.074;2023-02-22T03:13:44;18.93;;;14.00;;
10894;SDS011;5500;49.886;8.074;2023-02-22T03:16:19;17.90;;;13.17;;
10894;SDS011;5500;49.886;8.074;2023-02-22T03:18:52;21.13;;;14.43;;
10894;SDS011;5500;49.886;8.074;2023-02-22T03:21:24;18.03;;;13.77;;
10894;SDS011;5500;49.886;8.074;2023-02-22T03:23:58;22.80;;;14.73;;
10894;SDS011;5500;49.886;8.074;2023-02-22T03:26:31;17.83;;;13.30;;
10894;SDS011;5500;49.886;8.074;2023-02-22T03:29:02;23.30;;;14.27;;
10894;SDS011;5500;49.886;8.074;2023-02-22T03:31:32;18.97;;;13.33;;
10894;SDS011;5500;49.886;8.074;2023-02-22T03:34:05;21.63;;;14.60;;
10894;SDS011;5500;49.886;8.074;2023-02-22T03:36:35;25.63;;;15.17;;
10894;SDS011;5500;49.886;8.074;2023-02-22T03:39:05;20.17;;;14.37;;
10894;SDS011;5500;49.886;8.074;2023-02-22T03:41:34;21.23;;;14.80;;
10894;SDS011;5500;49.886;8.074;2023-02-22T03:44:04;19.03;;;13.67;;
10894;SDS011;5500;49.886;8.074;2023-02-22T03:46:34;17.83;;;13.83;;
10894;SDS011;5500;49.886;8.074;2023-02-22T03:49:07;21.07;;;14.17;;
10894;SDS011;5500;49.886;8.074;2023-02-22T03:51:36;19.23;;;13.63;;
10894;SDS011;5500;49.886;8.074;2023-02-22T03:54:05;20.13;;;14.40;;
10894;SDS011;5500;49.886;8.074;2023-02-22T03:56:38;18.73;;;13.50;;
10894;SDS011;5500;49.886;8.074;2023-02-22T03:59:12;18.17;;;13.63;;
10894;SDS011;5500;49.886;8.074;2023-02-22T04:01:39;17.80;;;12.53;;
10894;SDS011;5500;49.886;8.074;2023-02-22T04:04:09;19.00;;;12.53;;
10894;SDS011;5500;49.886;8.074;2023-02-22T04:06:37;18.20;;;13.03;;
10894;SDS011;5500;49.886;8.074;2023-02-22T04:09:05;23.73;;;12.97;;
10894;SDS011;5500;49.886;8.074;2023-02-22T04:11:33;19.83;;;13.40;;
10894;SDS011;5500;49.886;8.074;2023-02-22T04:14:01;19.10;;;13.47;;
10894;SDS011;5500;49.886;8.074;2023-02-22T04:16:29;19.53;;;13.00;;
10894;SDS011;5500;49.886;8.074;2023-02-22T04:18:56;19.77;;;13.27;;
10894;SDS011;5500;49.886;8.074;2023-02-22T04:21:25;17.63;;;13.33;;
10894;SDS011;5500;49.886;8.074;2023-02-22T04:23:53;18.33;;;14.07;;
10894;SDS011;5500;49.886;8.074;2023-02-22T04:26:21;23.97;;;14.07;;
10894;SDS011;5500;49.886;8.074;2023-02-22T04:28:48;23.07;;;14.83;;
10894;SDS011;5500;49.886;8.074;2023-02-22T04:31:16;18.23;;;14.27;;
10894;SDS011;5500;49.886;8.074;2023-02-22T04:33:44;25.53;;;14.57;;
10894;SDS011;5500;49.886;8.074;2023-02-22T04:36:12;20.50;;;14.33;;
10894;SDS011;5500;49.886;8.074;2023-02-22T04:38:42;23.33;;;14.57;;
10894;SDS011;5500;49.886;8.074;2023-02-22T04:41:10;19.87;;;14.10;;
10894;SDS011;5500;49.886;8.074;2023-02-22T04:43:37;21.97;;;14.37;;
10894;SDS011;5500;49.886;8.074;2023-02-22T04:46:05;21.50;;;14.07;;
10894;SDS011;5500;49.886;8.074;2023-02-22T04:48:33;18.77;;;13.67;;
10894;SDS011;5500;49.886;8.074;2023-02-22T04:51:01;22.37;;;15.13;;
10894;SDS011;5500;49.886;8.074;2023-02-22T04:53:29;26.50;;;14.87;;
10894;SDS011;5500;49.886;8.074;2023-02-22T04:55:58;21.83;;;13.90;;
10894;SDS011;5500;49.886;8.074;2023-02-22T04:58:26;19.17;;;13.90;;
10894;SDS011;5500;49.886;8.074;2023-02-22T05:00:54;17.40;;;13.30;;
10894;SDS011;5500;49.886;8.074;2023-02-22T05:03:22;16.90;;;12.63;;
10894;SDS011;5500;49.886;8.074;2023-02-22T05:05:50;24.43;;;13.57;;
10894;SDS011;5500;49.886;8.074;2023-02-22T05:08:18;17.63;;;12.60;;
10894;SDS011;5500;49.886;8.074;2023-02-22T05:10:45;17.00;;;13.60;;
10894;SDS011;5500;49.886;8.074;2023-02-22T05:13:15;19.77;;;14.10;;
10894;SDS011;5500;49.886;8.074;2023-02-22T05:15:42;23.53;;;15.10;;
10894;SDS011;5500;49.886;8.074;2023-02-22T05:18:10;23.53;;;15.17;;
10894;SDS011;5500;49.886;8.074;2023-02-22T05:20:38;24.20;;;16.27;;
10894;SDS011;5500;49.886;8.074;2023-02-22T05:23:05;23.60;;;15.53;;
10894;SDS011;5500;49.886;8.074;2023-02-22T05:25:33;28.73;;;16.70;;
10894;SDS011;5500;49.886;8.074;2023-02-22T05:28:02;22.27;;;14.60;;
10894;SDS011;5500;49.886;8.074;2023-02-22T05:30:33;18.53;;;12.80;;
10894;SDS011;5500;49.886;8.074;2023-02-22T05:33:01;14.40;;;12.00;;
10894;SDS011;5500;49.886;8.074;2023-02-22T05:35:29;18.10;;;13.10;;
10894;SDS011;5500;49.886;8.074;2023-02-22T05:37:56;20.10;;;14.57;;
10894;SDS011;5500;49.886;8.074;2023-02-22T05:40:27;20.87;;;15.10;;
10894;SDS011;5500;49.886;8.074;2023-02-22T05:42:55;19.87;;;15.57;;
10894;SDS011;5500;49.886;8.074;2023-02-22T05:45:24;23.20;;;16.50;;
10894;SDS011;5500;49.886;8.074;2023-02-22T05:47:54;20.20;;;16.77;;
10894;SDS011;5500;49.886;8.074;2023-02-22T05:50:22;25.83;;;18.63;;
10894;SDS011;5500;49.886;8.074;2023-02-22T05:52:50;27.00;;;18.37;;
10894;SDS011;5500;49.886;8.074;2023-02-22T05:55:19;23.33;;;16.97;;
10894;SDS011;5500;49.886;8.074;2023-02-22T05:57:48;28.10;;;18.43;;
10894;SDS011;5500;49.886;8.074;2023-02-22T06:00:17;25.57;;;16.90;;
10894;SDS011;5500;49.886;8.074;2023-02-22T06:02:52;23.30;;;16.67;;
10894;SDS011;5500;49.886;8.074;2023-02-22T06:05:21;17.50;;;14.03;;
10894;SDS011;5500;49.886;8.074;2023-02-22T06:07:49;19.30;;;14.53;;
10894;SDS011;5500;49.886;8.074;2023-02-22T06:10:17;18.43;;;13.97;;
10894;SDS011;5500;49.886;8.074;2023-02-22T06:12:45;17.97;;;13.67;;
10894;SDS011;5500;49.886;8.074;2023-02-22T06:15:13;18.20;;;14.00;;
10894;SDS011;5500;49.886;8.074;2023-02-22T06:17:40;17.90;;;14.23;;
10894;SDS011;5500;49.886;8.074;2023-02-22T06:20:10;19.33;;;14.50;;
10894;SDS011;5500;49.886;8.074;2023-02-22T06:22:40;17.77;;;13.23;;
10894;SDS011;5500;49.886;8.074;2023-02-22T06:25:08;18.13;;;12.80;;
10894;SDS011;5500;49.886;8.074;2023-02-22T06:27:36;17.47;;;13.43;;
10894;SDS011;5500;49.886;8.074;2023-02-22T06:30:04;18.13;;;13.37;;
10894;SDS011;5500;49.886;8.074;2023-02-22T06:32:33;19.03;;;12.80;;
10894;SDS011;5500;49.886;8.074;2023-02-22T06:35:00;16.97;;;13.00;;
10894;SDS011;5500;49.886;8.074;2023-02-22T06:37:29;17.33;;;13.50;;
10894;SDS011;5500;49.886;8.074;2023-02-22T06:39:57;17.07;;;14.00;;
10894;SDS011;5500;49.886;8.074;2023-02-22T06:42:30;20.03;;;14.37;;
10894;SDS011;5500;49.886;8.074;2023-02-22T06:44:58;18.90;;;13.93;;
10894;SDS011;5500;49.886;8.074;2023-02-22T06:47:25;25.33;;;15.23;;
10894;SDS011;5500;49.886;8.074;2023-02-22T06:49:53;20.20;;;13.97;;
10894;SDS011;5500;49.886;8.074;2023-02-22T06:52:46;18.73;;;14.87;;
10894;SDS011;5500;49.886;8.074;2023-02-22T06:55:18;23.53;;;16.50;;
10894;SDS011;5500;49.886;8.074;2023-02-22T06:57:46;21.87;;;16.07;;
10894;SDS011;5500;49.886;8.074;2023-02-22T07:00:14;20.07;;;15.67;;
10894;SDS011;5500;49.886;8.074;2023-02-22T07:02:44;21.87;;;16.47;;
10894;SDS011;5500;49.886;8.074;2023-02-22T07:05:14;23.03;;;15.17;;
10894;SDS011;5500;49.886;8.074;2023-02-22T07:07:43;26.67;;;16.03;;
10894;SDS011;5500;49.886;8.074;2023-02-22T07:10:16;18.90;;;15.07;;
10894;SDS011;5500;49.886;8.074;2023-02-22T07:12:45;20.20;;;15.30;;
10894;SDS011;5500;49.886;8.074;2023-02-22T07:15:15;20.97;;;15.33;;
10894;SDS011;5500;49.886;8.074;2023-02-22T07:17:44;21.20;;;15.47;;
10894;SDS011;5500;49.886;8.074;2023-02-22T07:20:11;22.87;;;15.80;;
10894;SDS011;5500;49.886;8.074;2023-02-22T07:22:39;21.83;;;16.37;;
10894;SDS011;5500;49.886;8.074;2023-02-22T07:25:07;25.50;;;16.17;;
10894;SDS011;5500;49.886;8.074;2023-02-22T07:27:37;24.73;;;16.87;;
10894;SDS011;5500;49.886;8.074;2023-02-22T07:30:07;26.77;;;16.27;;
10894;SDS011;5500;49.886;8.074;2023-02-22T07:32:36;23.43;;;17.77;;
10894;SDS011;5500;49.886;8.074;2023-02-22T07:35:04;25.83;;;17.10;;
10894;SDS011;5500;49.886;8.074;2023-02-22T07:37:32;25.97;;;18.33;;
10894;SDS011;5500;49.886;8.074;2023-02-22T07:40:00;25.67;;;18.70;;
10894;SDS011;5500;49.886;8.074;2023-02-22T07:42:27;25.37;;;18.00;;
10894;SDS011;5500;49.886;8.074;2023-02-22T07:44:56;16.80;;;14.77;;
10894;SDS011;5500;49.886;8.074;2023-02-22T07:47:24;13.13;;;11.43;;
10894;SDS011;5500;49.886;8.074;2023-02-22T07:49:51;13.53;;;10.37;;
10894;SDS011;5500;49.886;8.074;2023-02-22T07:52:19;11.87;;;10.67;;
10894;SDS011;5500;49.886;8.074;2023-02-22T07:54:47;15.30;;;12.43;;
10894;SDS011;5500;49.886;8.074;2023-02-22T07:57:14;24.00;;;13.10;;
10894;SDS011;5500;49.886;8.074;2023-02-22T07:59:45;24.87;;;14.17;;
10894;SDS011;5500;49.886;8.074;2023-02-22T08:02:15;14.10;;;11.53;;
10894;SDS011;5500;49.886;8.074;2023-02-22T08:04:43;15.97;;;11.27;;
10894;SDS011;5500;49.886;8.074;2023-02-22T08:07:11;22.27;;;10.57;;
10894;SDS011;5500;49.886;8.074;2023-02-22T08:09:39;17.03;;;10.97;;
10894;SDS011;5500;49.886;8.074;2023-02-22T08:12:06;22.97;;;12.57;;
10894;SDS011;5500;49.886;8.074;2023-02-22T08:14:34;41.60;;;15.43;;
10894;SDS011;5500;49.886;8.074;2023-02-22T08:17:02;33.33;;;16.83;;
10894;SDS011;5500;49.886;8.074;2023-02-22T08:19:33;90.53;;;21.27;;
10894;SDS011;5500;49.886;8.074;2023-02-22T08:22:01;59.80;;;19.37;;
10894;SDS011;5500;49.886;8.074;2023-02-22T08:24:28;62.63;;;21.67;;
10894;SDS011;5500;49.886;8.074;2023-02-22T08:26:57;64.57;;;19.70;;
10894;SDS011;5500;49.886;8.074;2023-02-22T08:29:25;68.10;;;22.03;;
10894;SDS011;5500;49.886;8.074;2023-02-22T08:31:58;65.60;;;20.73;;
10894;SDS011;5500;49.886;8.074;2023-02-22T08:34:26;80.17;;;21.17;;
10894;SDS011;5500;49.886;8.074;2023-02-22T08:36:55;62.20;;;18.87;;
10894;SDS011;5500;49.886;8.074;2023-02-22T08:39:23;33.27;;;19.43;;
10894;SDS011;5500;49.886;8.074;2023-02-22T08:41:50;52.93;;;20.87;;
10894;SDS011;5500;49.886;8.074;2023-02-22T08:44:18;42.93;;;20.40;;
10894;SDS011;5500;49.886;8.074;2023-02-22T08:46:46;43.53;;;20.57;;
10894;SDS011;5500;49.886;8.074;2023-02-22T08:49:16;48.33;;;18.93;;
10894;SDS011;5500;49.886;8.074;2023-02-22T08:51:43;54.17;;;19.50;;
10894;SDS011;5500;49.886;8.074;2023-02-22T08:54:12;39.70;;;18.30;;
10894;SDS011;5500;49.886;8.074;2023-02-22T08:56:40;35.83;;;16.93;;
10894;SDS011;5500;49.886;8.074;2023-02-22T08:59:08;33.97;;;18.63;;
10894;SDS011;5500;49.886;8.074;2023-02-22T09:01:35;33.10;;;17.07;;
10894;SDS011;5500;49.886;8.074;2023-02-22T09:04:04;31.37;;;16.23;;
10894;SDS011;5500;49.886;8.074;2023-02-22T09:06:31;22.03;;;16.80;;
10894;SDS011;5500;49.886;8.074;2023-02-22T09:08:59;25.93;;;15.80;;
10894;SDS011;5500;49.886;8.074;2023-02-22T09:11:31;30.30;;;15.73;;
10894;SDS011;5500;49.886;8.074;2023-02-22T09:18:54;33.50;;;14.83;;
10894;SDS011;5500;49.886;8.074;2023-02-22T09:21:22;17.87;;;14.17;;
10894;SDS011;5500;49.886;8.074;2023-02-22T09:23:49;25.83;;;15.40;;
10894;SDS011;5500;49.886;8.074;2023-02-22T09:26:21;63.07;;;17.07;;
10894;SDS011;5500;49.886;8.074;2023-02-22T09:28:51;18.57;;;14.97;;
10894;SDS011;5500;49.886;8.074;2023-02-22T09:31:18;24.27;;;16.67;;
10894;SDS011;5500;49.886;8.074;2023-02-22T09:33:47;23.10;;;15.83;;
10894;SDS011;5500;49.886;8.074;2023-02-22T09:36:14;37.27;;;17.47;;
10894;SDS011;5500;49.886;8.074;2023-02-22T09:38:42;45.23;;;17.87;;
10894;SDS011;5500;49.886;8.074;2023-02-22T09:41:13;25.07;;;17.83;;
10894;SDS011;5500;49.886;8.074;2023-02-22T09:43:46;48.87;;;18.40;;
10894;SDS011;5500;49.886;8.074;2023-02-22T09:46:20;25.40;;;15.13;;
10894;SDS011;5500;49.886;8.074;2023-02-22T09:48:58;46.43;;;17.57;;
10894;SDS011;5500;49.886;8.074;2023-02-22T09:51:30;32.03;;;18.80;;
10894;SDS011;5500;49.886;8.074;2023-02-22T09:54:02;25.60;;;18.53;;
10894;SDS011;5500;49.886;8.074;2023-02-22T09:56:33;31.43;;;17.67;;
10894;SDS011;5500;49.886;8.074;2023-02-22T09:59:02;22.10;;;17.60;;
10894;SDS011;5500;49.886;8.074;2023-02-22T10:01:35;24.33;;;18.23;;
10894;SDS011;5500;49.886;8.074;2023-02-22T10:04:09;29.30;;;19.00;;
10894;SDS011;5500;49.886;8.074;2023-02-22T10:06:38;25.17;;;17.67;;
10894;SDS011;5500;49.886;8.074;2023-02-22T10:09:08;23.60;;;18.03;;
10894;SDS011;5500;49.886;8.074;2023-02-22T10:11:42;26.63;;;19.50;;
10894;SDS011;5500;49.886;8.074;2023-02-22T10:17:05;28.70;;;19.53;;
10894;SDS011;5500;49.886;8.074;2023-02-22T10:19:42;28.27;;;19.37;;
10894;SDS011;5500;49.886;8.074;2023-02-22T10:22:20;28.17;;;20.13;;
10894;SDS011;5500;49.886;8.074;2023-02-22T10:24:59;42.07;;;21.57;;
10894;SDS011;5500;49.886;8.074;2023-02-22T10:27:31;27.50;;;21.90;;
10894;SDS011;5500;49.886;8.074;2023-02-22T10:30:02;29.10;;;22.13;;
10894;SDS011;5500;49.886;8.074;2023-02-22T10:32:51;24.63;;;21.13;;
10894;SDS011;5500;49.886;8.074;2023-02-22T10:35:26;28.47;;;21.67;;
10894;SDS011;5500;49.886;8.074;2023-02-22T10:37:56;29.20;;;21.20;;
10894;SDS011;5500;49.886;8.074;2023-02-22T10:40:27;28.97;;;22.63;;
10894;SDS011;5500;49.886;8.074;2023-02-22T10:43:05;27.80;;;20.80;;
10894;SDS011;5500;49.886;8.074;2023-02-22T10:45:34;25.27;;;20.33;;
10894;SDS011;5500;49.886;8.074;2023-02-22T10:48:04;27.20;;;21.40;;
10894;SDS011;5500;49.886;8.074;2023-02-22T10:50:37;29.33;;;22.20;;
10894;SDS011;5500;49.886;8.074;2023-02-22T10:53:06;29.13;;;24.30;;
10894;SDS011;5500;49.886;8.074;2023-02-22T10:55:34;28.57;;;22.93;;
10894;SDS011;5500;49.886;8.074;2023-02-22T10:58:03;24.47;;;19.63;;
10894;SDS011;5500;49.886;8.074;2023-02-22T11:00:33;25.43;;;20.30;;
10894;SDS011;5500;49.886;8.074;2023-02-22T11:03:04;25.43;;;20.03;;
10894;SDS011;5500;49.886;8.074;2023-02-22T11:05:42;26.93;;;20.47;;
10894;SDS011;5500;49.886;8.074;2023-02-22T11:08:13;24.03;;;20.23;;
10894;SDS011;5500;49.886;8.074;2023-02-22T11:10:43;26.03;;;19.53;;
10894;SDS011;5500;49.886;8.074;2023-02-22T11:13:17;24.57;;;19.63;;
10894;SDS011;5500;49.886;8.074;2023-02-22T11:15:51;24.13;;;19.60;;
10894;SDS011;5500;49.886;8.074;2023-02-22T11:18:24;25.20;;;19.13;;
10894;SDS011;5500;49.886;8.074;2023-02-22T11:21:00;24.50;;;18.20;;
10894;SDS011;5500;49.886;8.074;2023-02-22T11:23:29;23.87;;;18.93;;
10894;SDS011;5500;49.886;8.074;2023-02-22T11:26:01;19.97;;;17.57;;
10894;SDS011;5500;49.886;8.074;2023-02-22T11:28:32;20.90;;;17.23;;
10894;SDS011;5500;49.886;8.074;2023-02-22T11:31:10;21.03;;;16.87;;
10894;SDS011;5500;49.886;8.074;2023-02-22T11:33:46;18.20;;;15.47;;
10894;SDS011;5500;49.886;8.074;2023-02-22T11:36:32;18.37;;;16.43;;
10894;SDS011;5500;49.886;8.074;2023-02-22T11:39:02;18.90;;;16.03;;
10894;SDS011;5500;49.886;8.074;2023-02-22T11:41:36;18.47;;;15.40;;
10894;SDS011;5500;49.886;8.074;2023-02-22T11:44:11;20.23;;;16.80;;
10894;SDS011;5500;49.886;8.074;2023-02-22T11:46:41;17.27;;;15.47;;
10894;SDS011;5500;49.886;8.074;2023-02-22T11:49:11;20.70;;;16.63;;
10894;SDS011;5500;49.886;8.074;2023-02-22T11:51:48;20.43;;;15.67;;
10894;SDS011;5500;49.886;8.074;2023-02-22T11:54:31;20.40;;;15.73;;
10894;SDS011;5500;49.886;8.074;2023-02-22T11:57:21;22.73;;;16.10;;
10894;SDS011;5500;49.886;8.074;2023-02-22T12:00:02;19.70;;;16.23;;
10894;SDS011;5500;49.886;8.074;2023-02-22T12:02:43;21.67;;;16.93;;
10894;SDS011;5500;49.886;8.074;2023-02-22T12:05:26;21.17;;;17.47;;
10894;SDS011;5500;49.886;8.074;2023-02-22T12:15:43;21.70;;;16.90;;
10894;SDS011;5500;49.886;8.074;2023-02-22T12:18:15;22.80;;;16.83;;
10894;SDS011;5500;49.886;8.074;2023-02-22T12:20:50;22.30;;;15.97;;
10894;SDS011;5500;49.886;8.074;2023-02-22T12:23:22;18.43;;;15.13;;
10894;SDS011;5500;49.886;8.074;2023-02-22T12:25:56;23.13;;;16.63;;
10894;SDS011;5500;49.886;8.074;2023-02-22T12:28:28;18.90;;;16.03;;
10894;SDS011;5500;49.886;8.074;2023-02-22T12:31:02;17.40;;;15.37;;
10894;SDS011;5500;49.886;8.074;2023-02-22T12:33:37;20.67;;;16.07;;
10894;SDS011;5500;49.886;8.074;2023-02-22T12:36:11;20.00;;;16.00;;
10894;SDS011;5500;49.886;8.074;2023-02-22T12:38:41;21.43;;;16.87;;
10894;SDS011;5500;49.886;8.074;2023-02-22T12:41:12;18.07;;;15.33;;
10894;SDS011;5500;49.886;8.074;2023-02-22T12:43:44;23.40;;;15.13;;
10894;SDS011;5500;49.886;8.074;2023-02-22T12:46:14;18.87;;;15.73;;
10894;SDS011;5500;49.886;8.074;2023-02-22T12:48:46;18.97;;;15.50;;
10894;SDS011;5500;49.886;8.074;2023-02-22T12:51:22;17.90;;;15.63;;
10894;SDS011;5500;49.886;8.074;2023-02-22T12:53:58;18.53;;;15.30;;
10894;SDS011;5500;49.886;8.074;2023-02-22T12:56:32;19.53;;;16.47;;
10894;SDS011;5500;49.886;8.074;2023-02-22T12:59:02;20.77;;;15.43;;
10894;SDS011;5500;49.886;8.074;2023-02-22T13:01:34;22.20;;;16.73;;
10894;SDS011;5500;49.886;8.074;2023-02-22T13:04:04;18.20;;;16.07;;
10894;SDS011;5500;49.886;8.074;2023-02-22T13:06:50;18.27;;;15.50;;
10894;SDS011;5500;49.886;8.074;2023-02-22T13:12:34;19.63;;;15.37;;
10894;SDS011;5500;49.886;8.074;2023-02-22T13:15:08;19.83;;;16.27;;
10894;SDS011;5500;49.886;8.074;2023-02-22T13:17:44;21.77;;;16.70;;
10894;SDS011;5500;49.886;8.074;2023-02-22T13:20:19;21.13;;;16.83;;
10894;SDS011;5500;49.886;8.074;2023-02-22T13:22:52;22.53;;;19.07;;
10894;SDS011;5500;49.886;8.074;2023-02-22T13:25:24;21.50;;;16.33;;
10894;SDS011;5500;49.886;8.074;2023-02-22T13:27:57;21.20;;;17.53;;
10894;SDS011;5500;49.886;8.074;2023-02-22T13:30:28;21.27;;;18.30;;
10894;SDS011;5500;49.886;8.074;2023-02-22T13:33:11;22.47;;;18.80;;
10894;SDS011;5500;49.886;8.074;2023-02-22T13:35:56;22.57;;;18.37;;
10894;SDS011;5500;49.886;8.074;2023-02-22T13:38:40;18.83;;;16.83;;
10894;SDS011;5500;49.886;8.074;2023-02-22T13:41:28;22.13;;;16.63;;
10894;SDS011;5500;49.886;8.074;2023-02-22T13:44:36;22.03;;;18.63;;
10894;SDS011;5500;49.886;8.074;2023-02-22T13:47:28;18.83;;;16.80;;
10894;SDS011;5500;49.886;8.074;2023-02-22T13:50:14;19.93;;;16.50;;
10894;SDS011;5500;49.886;8.074;2023-02-22T13:53:11;20.23;;;16.60;;
10894;SDS011;5500;49.886;8.074;2023-02-22T13:55:45;23.67;;;17.73;;
10894;SDS011;5500;49.886;8.074;2023-02-22T13:58:14;20.57;;;17.13;;
10894;SDS011;5500;49.886;8.074;2023-02-22T14:00:48;22.97;;;18.03;;
10894;SDS011;5500;49.886;8.074;2023-02-22T14:03:27;23.83;;;17.77;;
10894;SDS011;5500;49.886;8.074;2023-02-22T14:06:04;18.83;;;16.30;;
10894;SDS011;5500;49.886;8.074;2023-02-22T14:08:40;22.57;;;18.27;;
10894;SDS011;5500;49.886;8.074;2023-02-22T14:14:10;26.30;;;17.87;;
10894;SDS011;5500;49.886;8.074;2023-02-22T14:20:03;22.73;;;18.33;;
10894;SDS011;5500;49.886;8.074;2023-02-22T14:22:48;23.10;;;18.17;;
10894;SDS011;5500;49.886;8.074;2023-02-22T14:25:31;22.97;;;17.63;;
10894;SDS011;5500;49.886;8.074;2023-02-22T14:28:07;21.80;;;16.90;;
10894;SDS011;5500;49.886;8.074;2023-02-22T14:30:37;19.83;;;17.30;;
10894;SDS011;5500;49.886;8.074;2023-02-22T14:36:16;20.60;;;18.03;;
10894;SDS011;5500;49.886;8.074;2023-02-22T14:38:47;20.47;;;18.03;;
10894;SDS011;5500;49.886;8.074;2023-02-22T14:41:20;21.00;;;17.67;;
10894;SDS011;5500;49.886;8.074;2023-02-22T14:43:57;20.93;;;17.40;;
10894;SDS011;5500;49.886;8.074;2023-02-22T14:46:26;20.77;;;17.87;;
10894;SDS011;5500;49.886;8.074;2023-02-22T14:49:00;22.63;;;17.97;;
10894;SDS011;5500;49.886;8.074;2023-02-22T14:51:33;22.17;;;17.43;;
10894;SDS011;5500;49.886;8.074;2023-02-22T14:54:08;22.23;;;17.37;;
10894;SDS011;5500;49.886;8.074;2023-02-22T14:56:41;24.23;;;16.87;;
10894;SDS011;5500;49.886;8.074;2023-02-22T14:59:18;19.80;;;17.70;;
10894;SDS011;5500;49.886;8.074;2023-02-22T15:01:47;24.23;;;16.87;;
10894;SDS011;5500;49.886;8.074;2023-02-22T15:04:36;20.33;;;17.33;;
10894;SDS011;5500;49.886;8.074;2023-02-22T15:07:07;21.43;;;18.03;;
10894;SDS011;5500;49.886;8.074;2023-02-22T15:09:38;19.60;;;17.07;;
10894;SDS011;5500;49.886;8.074;2023-02-22T15:12:11;22.17;;;17.63;;
10894;SDS011;5500;49.886;8.074;2023-02-22T15:14:45;19.73;;;16.47;;
10894;SDS011;5500;49.886;8.074;2023-02-22T15:17:16;20.97;;;17.37;;
10894;SDS011;5500;49.886;8.074;2023-02-22T15:19:46;23.07;;;17.27;;
10894;SDS011;5500;49.886;8.074;2023-02-22T15:22:19;21.47;;;17.17;;
10894;SDS011;5500;49.886;8.074;2023-02-22T15:24:54;20.93;;;17.33;;
10894;SDS011;5500;49.886;8.074;2023-02-22T15:27:25;21.00;;;18.53;;